Time;durP1;ratioP1;P1;durP2;ratioP2;P2;SDS_P1;SDS_P2;PMS_P1;PMS_P2;Temp;Humidity;BMP_temperature;BMP_pressure;BME280_temperature;BME280_humidity;BME280_pressure;Samples;Min_cycle;Max_cycle;Signal;HPM_P1;HPM_P2
2021/01/31 00:00:32;;;;;;;26.45;15.88;;;2.50;99.90;;;;;;5014552;28;20080;-65
2021/01/31 00:03:00;;;;;;;24.20;15.43;;;2.40;99.90;;;;;;5014421;28;20486;-66
2021/01/31 00:05:27;;;;;;;25.48;15.48;;;2.40;99.90;;;;;;4996134;28;20030;-66
2021/01/31 00:07:53;;;;;;;26.10;15.68;;;2.40;99.90;;;;;;5013818;28;20029;-66
2021/01/31 00:10:23;;;;;;;25.77;15.55;;;2.40;99.90;;;;;;4995850;28;20394;-66
2021/01/31 00:12:49;;;;;;;25.23;16.15;;;2.40;99.90;;;;;;5013676;28;20034;-66
2021/01/31 00:15:18;;;;;;;23.53;14.93;;;2.40;99.90;;;;;;5013528;28;20032;-65
2021/01/31 00:17:44;;;;;;;24.85;14.68;;;2.40;99.90;;;;;;5013413;28;20022;-65
2021/01/31 00:20:12;;;;;;;24.35;15.15;;;2.40;99.90;;;;;;5013112;28;20026;-65
2021/01/31 00:22:38;;;;;;;26.65;15.55;;;2.40;99.90;;;;;;5013244;28;20022;-65
2021/01/31 00:25:05;;;;;;;24.93;15.60;;;2.30;99.90;;;;;;4995687;28;20021;-65
2021/01/31 00:27:31;;;;;;;23.52;14.63;;;2.30;99.90;;;;;;5013094;28;20165;-66
2021/01/31 00:29:57;;;;;;;23.63;15.63;;;2.30;99.90;;;;;;5014586;28;20065;-66
2021/01/31 00:32:29;;;;;;;24.92;14.63;;;2.30;99.90;;;;;;5014626;28;20041;-66
2021/01/31 00:34:56;;;;;;;22.02;15.00;;;2.30;99.90;;;;;;4995768;28;20112;-66
2021/01/31 00:37:22;;;;;;;24.23;14.80;;;2.30;99.90;;;;;;5013122;28;20033;-65
2021/01/31 00:39:49;;;;;;;24.80;14.65;;;2.30;99.90;;;;;;5013280;28;20406;-66
2021/01/31 00:42:17;;;;;;;24.20;15.52;;;2.30;99.90;;;;;;5013102;28;20134;-65
2021/01/31 00:44:47;;;;;;;25.77;14.73;;;2.30;99.90;;;;;;4995284;28;20088;-65
2021/01/31 00:47:14;;;;;;;24.42;14.90;;;2.30;99.90;;;;;;5013305;28;20064;-66
2021/01/31 00:49:42;;;;;;;;;;;2.30;99.90;;;;;;5013401;28;20042;-64
2021/01/31 00:52:07;;;;;;;24.63;14.43;;;2.30;99.90;;;;;;5012972;28;19906;-64
2021/01/31 00:54:33;;;;;;;23.87;14.77;;;2.30;99.90;;;;;;5012826;28;20041;-65
2021/01/31 00:56:59;;;;;;;26.37;15.17;;;2.30;99.90;;;;;;5012819;28;20486;-66
2021/01/31 00:59:24;;;;;;;23.90;14.93;;;2.30;99.90;;;;;;5012957;28;20125;-65
2021/01/31 01:01:50;;;;;;;21.53;14.70;;;2.30;99.90;;;;;;4995313;28;20482;-65
2021/01/31 01:04:16;;;;;;;23.83;14.13;;;2.30;99.90;;;;;;5012975;28;20056;-66
2021/01/31 01:06:42;;;;;;;27.40;14.27;;;2.40;99.90;;;;;;5012900;28;20062;-65
2021/01/31 01:09:08;;;;;;;22.73;13.93;;;2.30;99.90;;;;;;5013385;28;20037;-65
2021/01/31 01:11:33;;;;;;;22.63;12.97;;;2.30;99.90;;;;;;4994971;28;20029;-65
2021/01/31 01:13:59;;;;;;;21.23;13.40;;;2.30;99.90;;;;;;4994906;28;20026;-65
2021/01/31 01:16:24;;;;;;;20.83;12.50;;;2.30;99.90;;;;;;5014475;28;20028;-65
2021/01/31 01:18:50;;;;;;;21.70;13.40;;;2.30;99.90;;;;;;5017560;28;20025;-65
2021/01/31 01:21:16;;;;;;;22.23;13.00;;;2.30;99.90;;;;;;5017109;28;20030;-66
2021/01/31 01:23:42;;;;;;;20.97;13.40;;;2.30;99.90;;;;;;5016567;28;20501;-66
2021/01/31 01:26:08;;;;;;;19.30;12.93;;;2.40;99.90;;;;;;5016253;28;20268;-66
2021/01/31 01:28:34;;;;;;;22.48;13.27;;;2.40;99.90;;;;;;5016797;28;20358;-66
2021/01/31 01:31:00;;;;;;;20.13;12.80;;;2.40;99.90;;;;;;4998990;28;20102;-66
2021/01/31 01:33:26;;;;;;;23.43;13.90;;;2.40;99.90;;;;;;5017363;28;20483;-66
2021/01/31 01:35:52;;;;;;;21.33;13.33;;;2.40;99.90;;;;;;5016184;28;20104;-66
2021/01/31 01:38:17;;;;;;;20.48;13.07;;;2.40;99.90;;;;;;5016137;28;20033;-66
2021/01/31 01:40:43;;;;;;;20.70;13.70;;;2.40;99.90;;;;;;5016073;28;20041;-66
2021/01/31 01:43:19;;;;;;;21.17;13.10;;;2.40;99.90;;;;;;5015915;28;20334;-66
2021/01/31 01:45:55;;;;;;;31.98;19.30;;;2.40;99.90;;;;;;5016049;28;20105;-66
2021/01/31 01:48:21;;;;;;;22.73;14.43;;;2.40;99.90;;;;;;4998317;28;20030;-66
2021/01/31 01:50:49;;;;;;;20.60;13.47;;;2.50;99.90;;;;;;5016052;28;20506;-66
2021/01/31 01:53:17;;;;;;;20.17;13.02;;;2.40;99.90;;;;;;4998069;28;20029;-65
2021/01/31 01:56:11;;;;;;;22.05;12.93;;;2.50;99.90;;;;;;5015417;28;20022;-66
2021/01/31 01:58:36;;;;;;;19.25;12.57;;;2.50;99.90;;;;;;5015693;28;20439;-66
2021/01/31 02:01:03;;;;;;;27.67;16.13;;;2.50;99.90;;;;;;4998640;28;20045;-66
2021/01/31 02:03:35;;;;;;;18.73;12.90;;;2.50;99.90;;;;;;5016283;28;20030;-65
2021/01/31 02:06:07;;;;;;;17.65;11.20;;;2.50;99.90;;;;;;5015986;28;20072;-66
2021/01/31 02:08:33;;;;;;;19.38;12.40;;;2.40;99.90;;;;;;5016225;28;20026;-65
2021/01/31 02:10:59;;;;;;;19.50;12.30;;;2.40;99.90;;;;;;5015712;28;20025;-65
2021/01/31 02:13:25;;;;;;;17.77;11.87;;;2.40;99.90;;;;;;5015979;28;20034;-65
2021/01/31 02:15:55;;;;;;;18.35;11.50;;;2.30;99.90;;;;;;5015788;28;20037;-65
2021/01/31 02:18:41;;;;;;;17.30;11.85;;;2.30;99.90;;;;;;5015564;28;20032;-65
2021/01/31 02:21:36;;;;;;;20.17;11.82;;;2.30;99.90;;;;;;4997806;28;20029;-65
2021/01/31 02:24:48;;;;;;;18.52;12.05;;;2.30;99.90;;;;;;5015285;28;20076;-65
2021/01/31 02:27:37;;;;;;;20.33;12.73;;;2.20;99.90;;;;;;5014687;28;20033;-65
2021/01/31 02:30:15;;;;;;;21.70;12.65;;;2.30;99.90;;;;;;5014967;28;20033;-65
2021/01/31 02:33:03;;;;;;;18.85;11.60;;;2.30;99.90;;;;;;4997660;28;20041;-65
2021/01/31 02:35:30;;;;;;;18.80;11.80;;;2.30;99.90;;;;;;5015180;28;20048;-65
2021/01/31 02:38:24;;;;;;;18.33;11.75;;;2.20;99.90;;;;;;5014828;28;20026;-65
2021/01/31 02:40:55;;;;;;;18.30;11.73;;;2.20;99.90;;;;;;4984682;28;20038;-65
2021/01/31 02:43:44;;;;;;;18.02;11.70;;;2.20;99.90;;;;;;5014868;28;20037;-65
2021/01/31 02:46:33;;;;;;;17.42;11.40;;;2.20;99.90;;;;;;4997305;28;20049;-65
2021/01/31 02:49:12;;;;;;;16.38;10.27;;;2.20;99.90;;;;;;4997272;28;20029;-65
2021/01/31 02:52:01;;;;;;;20.52;12.10;;;2.20;99.90;;;;;;4997107;28;20406;-65
2021/01/31 02:54:34;;;;;;;15.80;10.85;;;2.20;99.90;;;;;;5002754;28;20037;-65
2021/01/31 02:57:04;;;;;;;17.95;11.15;;;2.20;99.90;;;;;;5015298;28;20034;-67
2021/01/31 02:59:41;;;;;;;16.88;11.02;;;2.20;99.90;;;;;;5015122;28;20050;-67
2021/01/31 03:02:18;;;;;;;16.95;10.95;;;2.20;99.90;;;;;;5014875;28;20095;-67
2021/01/31 03:05:04;;;;;;;17.08;11.02;;;2.20;99.90;;;;;;5014787;28;20399;-67
2021/01/31 03:07:41;;;;;;;17.13;11.60;;;2.20;99.90;;;;;;5014461;28;20030;-67
2021/01/31 03:10:09;;;;;;;17.92;11.40;;;2.20;99.90;;;;;;5014982;28;20439;-67
2021/01/31 03:12:47;;;;;;;17.77;11.50;;;2.20;99.90;;;;;;5014450;28;20038;-67
2021/01/31 03:15:21;;;;;;;18.77;11.07;;;2.20;99.90;;;;;;5014400;28;20022;-66
2021/01/31 03:18:00;;;;;;;15.85;10.98;;;2.20;99.90;;;;;;4996693;28;20025;-66
2021/01/31 03:20:34;;;;;;;17.92;11.20;;;2.20;99.90;;;;;;5014401;28;20046;-67
2021/01/31 03:23:13;;;;;;;18.70;11.07;;;2.20;99.90;;;;;;5014236;28;20026;-68
2021/01/31 03:25:43;;;;;;;17.73;11.07;;;2.20;99.90;;;;;;5014195;28;20428;-66
2021/01/31 03:28:09;;;;;;;16.77;10.60;;;2.20;99.90;;;;;;5014344;28;20026;-66
2021/01/31 03:30:35;;;;;;;16.50;11.63;;;2.20;99.90;;;;;;5014393;28;20018;-67
2021/01/31 03:33:14;;;;;;;17.83;10.97;;;2.20;99.90;;;;;;5013949;28;20112;-67
2021/01/31 03:35:49;;;;;;;20.08;11.18;;;2.20;99.90;;;;;;5014300;28;20030;-67
2021/01/31 03:38:29;;;;;;;17.20;10.98;;;2.20;99.90;;;;;;5013651;28;20026;-67
2021/01/31 03:41:01;;;;;;;16.77;10.63;;;2.20;99.90;;;;;;4996307;28;20109;-67
2021/01/31 03:43:27;;;;;;;18.08;11.88;;;2.20;99.90;;;;;;4996272;28;20019;-67
2021/01/31 03:46:18;;;;;;;18.33;11.90;;;2.20;99.90;;;;;;5013565;28;20029;-67
2021/01/31 03:48:50;;;;;;;17.52;11.30;;;2.20;99.90;;;;;;5014136;28;20087;-67
2021/01/31 03:51:17;;;;;;;19.33;11.75;;;2.20;99.90;;;;;;5013714;28;20026;-67
2021/01/31 03:53:43;;;;;;;17.20;10.95;;;2.10;99.90;;;;;;5013704;28;20169;-67
2021/01/31 03:56:11;;;;;;;16.53;10.93;;;2.10;99.90;;;;;;5013258;28;20112;-67
2021/01/31 03:58:40;;;;;;;16.65;10.90;;;2.10;99.90;;;;;;5013704;28;20017;-67
2021/01/31 04:01:06;;;;;;;18.90;11.88;;;2.10;99.90;;;;;;4995746;28;20075;-67
2021/01/31 04:03:36;;;;;;;17.03;11.40;;;2.10;99.90;;;;;;5013401;28;20097;-68
2021/01/31 04:06:17;;;;;;;16.77;11.13;;;2.10;99.90;;;;;;5013312;28;20432;-68
2021/01/31 04:08:46;;;;;;;18.80;11.18;;;2.10;99.90;;;;;;5013511;28;20022;-67
2021/01/31 04:11:30;;;;;;;15.55;10.93;;;2.10;99.90;;;;;;5013641;28;20059;-67
2021/01/31 04:13:59;;;;;;;17.65;11.13;;;2.10;99.90;;;;;;4995495;28;20065;-67
2021/01/31 04:16:25;;;;;;;17.50;11.55;;;2.10;99.90;;;;;;5013481;28;20029;-67
2021/01/31 04:18:51;;;;;;;17.45;11.43;;;2.10;99.90;;;;;;5013564;28;20087;-67
2021/01/31 04:21:16;;;;;;;17.43;11.20;;;2.10;99.90;;;;;;4995624;28;20026;-67
2021/01/31 04:23:42;;;;;;;17.70;11.40;;;2.10;99.90;;;;;;4995732;28;20053;-66
2021/01/31 04:26:07;;;;;;;17.10;11.17;;;2.10;99.90;;;;;;5013070;28;20474;-68
2021/01/31 04:28:33;;;;;;;16.77;11.23;;;2.10;99.90;;;;;;5013121;28;20032;-67
2021/01/31 04:30:59;;;;;;;17.30;11.57;;;2.10;99.90;;;;;;4996000;28;20107;-67
2021/01/31 04:33:26;;;;;;;17.13;11.82;;;2.10;99.90;;;;;;5013469;28;20037;-67
2021/01/31 04:35:52;;;;;;;19.00;11.57;;;2.10;99.90;;;;;;4995365;28;20084;-67
2021/01/31 04:38:18;;;;;;;18.45;11.50;;;2.10;99.90;;;;;;5013064;28;20521;-67
2021/01/31 04:40:44;;;;;;;19.50;11.55;;;2.10;99.90;;;;;;5013430;28;20037;-67
2021/01/31 04:43:13;;;;;;;16.97;11.53;;;2.10;99.90;;;;;;4995163;28;20022;-67
2021/01/31 04:45:40;;;;;;;18.05;11.60;;;2.00;99.90;;;;;;5012627;28;20265;-66
2021/01/31 04:48:24;;;;;;;17.38;11.20;;;2.00;99.90;;;;;;4995079;28;20028;-67
2021/01/31 04:51:10;;;;;;;18.48;11.63;;;2.00;99.90;;;;;;5013608;28;20097;-66
2021/01/31 04:54:07;;;;;;;17.48;11.07;;;2.00;99.90;;;;;;5016782;28;20055;-67
2021/01/31 04:57:08;;;;;;;19.93;12.00;;;2.00;99.90;;;;;;4999196;28;20030;-67
2021/01/31 04:59:40;;;;;;;19.90;12.45;;;2.00;99.90;;;;;;4949911;28;20734;-67
2021/01/31 05:02:22;;;;;;;18.50;12.13;;;2.00;99.90;;;;;;4999088;28;20076;-67
2021/01/31 05:04:54;;;;;;;18.52;11.85;;;2.00;99.90;;;;;;5016871;28;20024;-66
2021/01/31 05:07:26;;;;;;;17.55;11.65;;;2.00;99.90;;;;;;5016930;28;20037;-67
2021/01/31 05:09:52;;;;;;;20.80;12.35;;;2.00;99.90;;;;;;5017436;28;20385;-67
2021/01/31 05:12:20;;;;;;;21.43;12.30;;;2.00;99.90;;;;;;5016612;28;20061;-67
2021/01/31 05:15:12;;;;;;;20.98;13.30;;;1.90;99.90;;;;;;4998859;28;20026;-67
2021/01/31 05:17:39;;;;;;;17.33;11.75;;;2.00;99.90;;;;;;4998820;28;20104;-67
2021/01/31 05:20:08;;;;;;;22.10;12.77;;;1.90;99.90;;;;;;4998833;28;20026;-67
2021/01/31 05:22:39;;;;;;;18.02;11.77;;;1.90;99.90;;;;;;4998930;28;20100;-67
2021/01/31 05:25:10;;;;;;;18.25;11.98;;;2.00;99.90;;;;;;5016407;28;20026;-67
2021/01/31 05:27:36;;;;;;;17.42;11.38;;;2.00;99.90;;;;;;4998550;28;20026;-67
2021/01/31 05:30:04;;;;;;;18.37;11.10;;;2.00;99.90;;;;;;5016139;28;20414;-67
2021/01/31 05:32:30;;;;;;;18.23;11.95;;;2.00;99.90;;;;;;5016126;28;20030;-67
2021/01/31 05:34:58;;;;;;;18.87;13.17;;;2.00;99.90;;;;;;5016323;28;20117;-67
2021/01/31 05:37:23;;;;;;;19.38;11.80;;;2.00;99.90;;;;;;5016476;28;20026;-67
2021/01/31 05:40:00;;;;;;;18.93;11.90;;;2.00;99.90;;;;;;5016266;28;20046;-67
2021/01/31 05:42:38;;;;;;;18.90;11.80;;;2.00;99.90;;;;;;4998313;28;20029;-67
2021/01/31 05:45:13;;;;;;;19.40;12.65;;;2.00;99.90;;;;;;4998267;28;20028;-67
2021/01/31 05:47:41;;;;;;;19.85;11.88;;;2.00;99.90;;;;;;5015802;28;20499;-67
2021/01/31 05:50:30;;;;;;;17.08;11.95;;;2.00;99.90;;;;;;5015729;28;20560;-66
2021/01/31 05:52:56;;;;;;;19.10;11.90;;;2.00;99.90;;;;;;4998165;28;20386;-66
2021/01/31 05:55:30;;;;;;;18.60;12.13;;;2.00;99.90;;;;;;5015133;28;20030;-67
2021/01/31 05:58:19;;;;;;;18.75;11.57;;;1.90;99.90;;;;;;5015590;28;20088;-66
2021/01/31 06:00:47;;;;;;;18.67;11.73;;;1.90;99.90;;;;;;4998039;28;20022;-67
2021/01/31 06:03:19;;;;;;;19.20;12.63;;;1.90;99.90;;;;;;5015823;28;20022;-66
2021/01/31 06:05:45;;;;;;;17.25;11.20;;;1.90;99.90;;;;;;5015502;28;20037;-66
2021/01/31 06:08:33;;;;;;;17.97;11.57;;;1.90;99.90;;;;;;5016036;28;20026;-67
2021/01/31 06:11:10;;;;;;;18.38;11.43;;;1.90;99.90;;;;;;4997980;28;20033;-67
2021/01/31 06:13:38;;;;;;;18.75;11.15;;;2.00;99.90;;;;;;4997948;28;20506;-67
2021/01/31 06:16:07;;;;;;;19.35;11.90;;;2.00;99.90;;;;;;5015605;28;20442;-67
2021/01/31 06:18:46;;;;;;;17.60;11.82;;;1.90;99.90;;;;;;5015496;28;20513;-67
2021/01/31 06:21:18;;;;;;;20.92;11.55;;;1.90;99.90;;;;;;5015120;28;20398;-67
2021/01/31 06:23:53;;;;;;;18.77;12.55;;;1.90;99.90;;;;;;5015458;28;20542;-67
2021/01/31 06:26:28;;;;;;;17.73;12.02;;;2.00;99.90;;;;;;5015037;28;20116;-67
2021/01/31 06:29:19;;;;;;;16.83;11.90;;;2.00;99.90;;;;;;4997460;28;20348;-67
2021/01/31 06:32:09;;;;;;;22.10;12.52;;;2.00;99.90;;;;;;4997314;28;20038;-67
2021/01/31 06:34:35;;;;;;;20.27;12.88;;;2.00;99.90;;;;;;5014780;28;20034;-67
2021/01/31 06:37:27;;;;;;;19.10;11.90;;;2.00;99.90;;;;;;5014939;28;20395;-67
2021/01/31 06:40:12;;;;;;;18.42;12.25;;;2.00;99.90;;;;;;5014946;28;20022;-67
2021/01/31 06:43:13;;;;;;;19.15;11.68;;;2.00;99.90;;;;;;5014849;28;20026;-67
2021/01/31 06:46:03;;;;;;;18.33;11.13;;;2.00;99.90;;;;;;4996946;28;20026;-67
2021/01/31 06:48:41;;;;;;;19.48;12.30;;;2.00;99.90;;;;;;5015154;28;20041;-67
2021/01/31 06:51:19;;;;;;;19.45;12.27;;;2.00;99.90;;;;;;5015083;28;20397;-67
2021/01/31 06:54:18;;;;;;;19.83;12.27;;;2.00;99.90;;;;;;5015090;28;20018;-67
2021/01/31 06:56:53;;;;;;;20.35;13.38;;;2.00;99.90;;;;;;5014500;28;20438;-67
2021/01/31 06:59:39;;;;;;;19.45;12.35;;;2.00;99.90;;;;;;4997113;28;20026;-67
2021/01/31 07:02:11;;;;;;;18.88;12.48;;;2.00;99.90;;;;;;4996973;28;20022;-67
2021/01/31 07:05:02;;;;;;;19.98;11.40;;;2.00;99.90;;;;;;5014656;28;20022;-67
2021/01/31 07:07:42;;;;;;;20.65;11.77;;;2.00;99.90;;;;;;4996786;28;20036;-67
2021/01/31 07:10:23;;;;;;;18.70;11.38;;;2.00;99.90;;;;;;5014594;28;20029;-67
2021/01/31 07:13:18;;;;;;;19.38;12.00;;;2.00;99.90;;;;;;5014586;28;20470;-67
2021/01/31 07:16:17;;;;;;;20.30;11.80;;;2.00;99.90;;;;;;5014020;28;20045;-67
2021/01/31 07:18:47;;;;;;;17.90;11.55;;;2.00;99.90;;;;;;5014702;28;20030;-67
2021/01/31 07:21:20;;;;;;;19.48;12.43;;;2.00;99.90;;;;;;4996757;28;20394;-67
2021/01/31 07:23:48;;;;;;;18.08;11.57;;;2.00;99.90;;;;;;5014814;28;20026;-67
2021/01/31 07:26:28;;;;;;;20.83;12.43;;;2.00;99.90;;;;;;5014702;28;20037;-67
2021/01/31 07:28:59;;;;;;;19.10;12.02;;;2.00;99.90;;;;;;5014320;28;20037;-67
2021/01/31 07:31:39;;;;;;;17.73;11.50;;;2.00;99.90;;;;;;4996390;28;20053;-67
2021/01/31 07:34:17;;;;;;;19.05;11.57;;;2.00;99.90;;;;;;5014339;28;20431;-67
2021/01/31 07:36:58;;;;;;;19.15;12.50;;;2.00;99.90;;;;;;5014413;28;20030;-67
2021/01/31 07:40:04;;;;;;;18.92;12.23;;;2.10;99.90;;;;;;5013800;28;20057;-67
2021/01/31 07:42:32;;;;;;;19.92;12.45;;;2.10;99.90;;;;;;5014029;28;20390;-67
2021/01/31 07:45:05;;;;;;;20.42;12.82;;;2.10;99.90;;;;;;5013824;28;20022;-67
2021/01/31 07:47:31;;;;;;;23.40;13.25;;;2.20;99.90;;;;;;5013737;28;20117;-67
2021/01/31 07:49:56;;;;;;;20.10;12.10;;;2.10;99.90;;;;;;4996254;28;20458;-67
2021/01/31 07:52:28;;;;;;;19.07;12.17;;;2.10;99.90;;;;;;4996098;28;20486;-67
2021/01/31 07:55:25;;;;;;;18.42;12.30;;;2.20;99.90;;;;;;5013455;28;20100;-67
2021/01/31 07:58:24;;;;;;;19.15;11.85;;;2.20;99.90;;;;;;4986305;28;20601;-68
2021/01/31 08:00:54;;;;;;;19.92;12.77;;;2.20;99.90;;;;;;4995830;28;20040;-68
2021/01/31 08:03:41;;;;;;;21.15;13.45;;;2.20;99.90;;;;;;5013416;28;20499;-68
2021/01/31 08:06:17;;;;;;;19.33;12.03;;;2.20;99.90;;;;;;4995980;28;20026;-67
2021/01/31 08:08:50;;;;;;;17.52;11.88;;;2.20;99.90;;;;;;5013555;28;20429;-67
2021/01/31 08:11:18;;;;;;;18.77;12.13;;;2.20;99.90;;;;;;4995852;28;20125;-66
2021/01/31 08:13:49;;;;;;;21.23;12.95;;;2.30;99.90;;;;;;5013231;28;20120;-67
2021/01/31 08:16:43;;;;;;;19.50;11.45;;;2.30;99.90;;;;;;5013242;28;20021;-67
2021/01/31 08:19:25;;;;;;;20.63;12.90;;;2.30;99.90;;;;;;4995866;28;20028;-67
2021/01/31 08:21:50;;;;;;;18.48;12.10;;;2.30;99.90;;;;;;5013895;28;20072;-67
2021/01/31 08:24:54;;;;;;;16.83;11.57;;;2.30;99.90;;;;;;4995656;28;20018;-68
2021/01/31 08:27:40;;;;;;;18.10;11.68;;;2.40;99.90;;;;;;5012563;28;20022;-67
2021/01/31 08:30:32;;;;;;;20.35;12.15;;;2.40;99.90;;;;;;5013111;28;20045;-67
2021/01/31 08:33:00;;;;;;;18.65;11.95;;;2.50;99.90;;;;;;5013104;28;20026;-67
2021/01/31 08:35:41;;;;;;;18.65;12.02;;;2.50;99.90;;;;;;5013190;28;20030;-67
2021/01/31 08:38:25;;;;;;;24.05;14.68;;;2.60;99.90;;;;;;5013293;28;20021;-67
2021/01/31 08:41:02;;;;;;;21.30;12.85;;;2.50;99.90;;;;;;5012985;28;20025;-67
2021/01/31 08:43:35;;;;;;;18.98;11.57;;;2.60;99.90;;;;;;5013073;28;20022;-67
2021/01/31 08:46:21;;;;;;;17.60;11.43;;;2.70;99.90;;;;;;5013029;28;20097;-66
2021/01/31 08:49:11;;;;;;;19.75;12.00;;;2.70;99.90;;;;;;5013326;28;20360;-65
2021/01/31 08:51:40;;;;;;;17.63;11.55;;;2.70;99.90;;;;;;5012892;28;20088;-64
2021/01/31 08:54:18;;;;;;;17.20;11.32;;;2.70;99.90;;;;;;5012852;28;20022;-64
2021/01/31 08:56:48;;;;;;;17.85;11.50;;;2.60;99.90;;;;;;5013323;28;20034;-63
2021/01/31 08:59:25;;;;;;;21.55;12.98;;;2.70;99.90;;;;;;5012961;28;20026;-66
2021/01/31 09:01:54;;;;;;;18.60;10.85;;;2.80;99.90;;;;;;5012681;28;20026;-65
2021/01/31 09:04:20;;;;;;;17.13;11.15;;;2.90;99.90;;;;;;5013046;28;20020;-62
2021/01/31 09:06:49;;;;;;;20.25;12.10;;;2.90;99.90;;;;;;5012741;28;20454;-64
2021/01/31 09:09:45;;;;;;;16.20;10.48;;;2.90;99.90;;;;;;5012670;28;20088;-64
2021/01/31 09:12:13;;;;;;;16.25;11.02;;;2.90;99.90;;;;;;5012189;28;20633;-65
2021/01/31 09:14:41;;;;;;;17.90;12.00;;;2.90;99.90;;;;;;5012714;28;20081;-64
2021/01/31 09:17:26;;;;;;;15.45;10.15;;;2.90;99.90;;;;;;4994801;28;20025;-64
2021/01/31 09:20:14;;;;;;;16.77;11.73;;;2.90;99.90;;;;;;5013125;28;20092;-64
2021/01/31 09:22:45;;;;;;;17.25;10.77;;;2.90;99.90;;;;;;5013003;28;20379;-65
2021/01/31 09:25:15;;;;;;;18.23;11.82;;;2.90;99.90;;;;;;5012758;28;20026;-65
2021/01/31 09:28:02;;;;;;;18.90;12.57;;;2.90;99.90;;;;;;4995329;28;20383;-66
2021/01/31 09:30:29;;;;;;;19.50;11.77;;;2.90;99.90;;;;;;5012694;28;20057;-65
2021/01/31 09:33:26;;;;;;;17.67;12.30;;;3.00;99.90;;;;;;4994873;28;20096;-65
2021/01/31 09:35:52;;;;;;;18.45;11.90;;;3.00;99.90;;;;;;4977798;28;20328;-65
2021/01/31 09:38:28;;;;;;;17.15;11.25;;;3.10;99.90;;;;;;5015264;28;20076;-66
2021/01/31 09:41:00;;;;;;;17.85;11.57;;;3.10;99.90;;;;;;4998333;28;20033;-66
2021/01/31 09:43:29;;;;;;;16.98;11.10;;;3.10;99.90;;;;;;4998378;28;20029;-65
2021/01/31 09:46:01;;;;;;;19.48;12.10;;;3.30;99.90;;;;;;4998339;28;20383;-65
2021/01/31 09:48:30;;;;;;;19.52;12.32;;;3.30;99.90;;;;;;5016314;28;20406;-65
2021/01/31 09:50:59;;;;;;;20.52;11.80;;;3.50;99.90;;;;;;5015686;28;20145;-66
2021/01/31 09:53:39;;;;;;;17.13;10.88;;;3.50;99.90;;;;;;4998159;28;20030;-65
2021/01/31 09:57:03;;;;;;;17.98;11.65;;;3.40;99.90;;;;;;5015810;28;20026;-66
2021/01/31 09:59:36;;;;;;;17.67;11.55;;;3.50;99.90;;;;;;4926957;29;20483;-64
2021/01/31 10:02:22;;;;;;;18.25;11.05;;;3.50;99.90;;;;;;4936518;29;20441;-65
2021/01/31 10:05:01;;;;;;;16.08;10.75;;;3.50;99.90;;;;;;4987367;28;20435;-65
2021/01/31 10:07:32;;;;;;;16.40;11.30;;;3.60;99.90;;;;;;5015980;28;20026;-65
2021/01/31 10:10:18;;;;;;;15.60;10.43;;;3.70;99.90;;;;;;4998160;28;20452;-65
2021/01/31 10:12:44;;;;;;;20.52;12.85;;;3.80;99.90;;;;;;5015389;28;20057;-65
2021/01/31 10:15:09;;;;;;;18.80;12.07;;;3.80;99.90;;;;;;5015662;28;20429;-66
2021/01/31 10:17:45;;;;;;;18.83;11.60;;;3.90;99.90;;;;;;5015678;28;20099;-64
2021/01/31 10:20:36;;;;;;;17.02;11.80;;;3.90;99.90;;;;;;5015170;28;20022;-66
2021/01/31 10:23:09;;;;;;;18.77;11.60;;;3.80;99.90;;;;;;5015222;28;20483;-65
2021/01/31 10:25:37;;;;;;;19.45;12.05;;;3.70;99.90;;;;;;5015194;28;20057;-66
2021/01/31 10:28:04;;;;;;;18.83;12.00;;;3.70;99.90;;;;;;4997495;28;20549;-65
2021/01/31 10:30:36;;;;;;;21.35;12.05;;;3.80;99.90;;;;;;5014973;28;20108;-65
2021/01/31 10:33:02;;;;;;;19.13;11.60;;;3.70;99.90;;;;;;5014958;28;20109;-65
2021/01/31 10:35:31;;;;;;;;;;;3.70;99.90;;;;;;5015421;28;20056;-65
2021/01/31 10:37:59;;;;;;;18.42;11.75;;;3.70;99.90;;;;;;5015149;28;19909;-65
2021/01/31 10:40:25;;;;;;;18.27;11.98;;;3.70;99.90;;;;;;5014837;28;20029;-65
2021/01/31 10:42:51;;;;;;;18.40;11.60;;;3.80;99.90;;;;;;5015047;28;20061;-65
2021/01/31 10:45:22;;;;;;;19.83;12.20;;;3.90;99.90;;;;;;5014964;28;20030;-64
2021/01/31 10:47:49;;;;;;;18.52;11.50;;;3.90;99.90;;;;;;4997115;28;20030;-65
2021/01/31 10:50:18;;;;;;;17.17;11.35;;;3.90;99.90;;;;;;5014400;28;20109;-64
2021/01/31 10:52:45;;;;;;;16.38;11.38;;;4.00;99.90;;;;;;5014806;28;20030;-65
2021/01/31 10:55:12;;;;;;;18.77;11.55;;;4.10;99.90;;;;;;5014915;28;20041;-66
2021/01/31 10:57:38;;;;;;;19.27;11.35;;;4.00;99.90;;;;;;5015002;28;20108;-65
2021/01/31 11:00:09;;;;;;;19.30;12.07;;;4.00;99.90;;;;;;5014651;28;20422;-66
2021/01/31 11:02:35;;;;;;;22.17;13.38;;;4.10;99.90;;;;;;5015693;28;20269;-64
2021/01/31 11:05:00;;;;;;;19.40;12.23;;;4.10;99.90;;;;;;5014380;28;20025;-65
2021/01/31 11:07:26;;;;;;;20.73;12.07;;;4.10;99.90;;;;;;5015204;28;20033;-65
2021/01/31 11:09:52;;;;;;;19.73;11.57;;;4.10;99.90;;;;;;5014648;28;20033;-64
2021/01/31 11:12:17;;;;;;;19.60;12.07;;;4.10;99.90;;;;;;4996906;28;20026;-65
2021/01/31 11:14:43;;;;;;;19.70;12.60;;;4.10;99.90;;;;;;4996992;28;20025;-65
2021/01/31 11:17:09;;;;;;;18.63;11.97;;;4.10;99.90;;;;;;5014880;28;20076;-63
2021/01/31 11:19:34;;;;;;;16.83;11.03;;;4.10;99.90;;;;;;5014610;28;20026;-64
2021/01/31 11:22:00;;;;;;;19.40;11.57;;;4.10;99.90;;;;;;5014252;28;20104;-64
2021/01/31 11:24:25;;;;;;;18.47;11.80;;;4.10;99.90;;;;;;4996690;28;20121;-65
2021/01/31 11:26:51;;;;;;;21.37;11.90;;;4.10;99.90;;;;;;4996508;28;20029;-65
2021/01/31 11:29:17;;;;;;;17.67;11.63;;;4.20;99.90;;;;;;5014680;28;20022;-64
2021/01/31 11:31:43;;;;;;;17.83;11.27;;;4.20;99.90;;;;;;4996693;28;20022;-64
2021/01/31 11:34:08;;;;;;;19.45;12.45;;;4.20;99.90;;;;;;5014594;28;20044;-65
2021/01/31 11:36:34;;;;;;;19.10;11.90;;;4.20;99.90;;;;;;5013692;28;20034;-65
2021/01/31 11:39:07;;;;;;;18.63;12.43;;;4.10;99.90;;;;;;5014169;28;20029;-64
2021/01/31 11:41:36;;;;;;;18.80;12.65;;;4.20;99.90;;;;;;5014708;28;20022;-63
2021/01/31 11:44:03;;;;;;;20.15;12.15;;;4.20;99.90;;;;;;4996781;28;20398;-66
2021/01/31 11:46:29;;;;;;;18.85;12.23;;;4.20;99.90;;;;;;4996569;28;20030;-64
2021/01/31 11:48:54;;;;;;;19.13;12.50;;;4.20;99.90;;;;;;5013839;28;20025;-64
2021/01/31 11:51:20;;;;;;;23.60;12.73;;;4.20;99.90;;;;;;5014025;28;20080;-66
2021/01/31 11:53:46;;;;;;;21.98;13.52;;;4.20;99.90;;;;;;4996289;28;20064;-65
2021/01/31 11:56:11;;;;;;;21.30;12.70;;;4.20;99.90;;;;;;5014280;28;20041;-66
2021/01/31 11:58:37;;;;;;;22.07;13.30;;;4.20;99.90;;;;;;5014628;28;20049;-66
2021/01/31 12:01:03;;;;;;;25.30;15.70;;;4.20;99.90;;;;;;5014232;28;20553;-65
2021/01/31 12:03:28;;;;;;;21.43;13.20;;;4.30;99.90;;;;;;5014574;28;20056;-66
2021/01/31 12:05:54;;;;;;;23.10;13.30;;;4.30;99.90;;;;;;5013877;28;20084;-65
2021/01/31 12:08:19;;;;;;;25.17;15.53;;;4.30;99.90;;;;;;4995997;28;20475;-66
2021/01/31 12:10:45;;;;;;;20.30;13.17;;;4.30;99.90;;;;;;5013810;28;20076;-66
2021/01/31 12:13:12;;;;;;;22.87;12.20;;;4.40;99.90;;;;;;5013801;28;20029;-66
2021/01/31 12:15:39;;;;;;;23.48;15.35;;;4.40;99.90;;;;;;5013658;28;20044;-67
2021/01/31 12:18:05;;;;;;;19.23;12.85;;;4.40;99.90;;;;;;5013413;28;20022;-67
2021/01/31 12:20:31;;;;;;;22.17;13.88;;;4.50;99.90;;;;;;5013332;28;20084;-65
2021/01/31 12:22:57;;;;;;;20.93;12.90;;;4.50;99.90;;;;;;5013601;28;20050;-66
2021/01/31 12:25:23;;;;;;;19.15;13.05;;;4.40;99.90;;;;;;4995723;28;20077;-66
2021/01/31 12:27:53;;;;;;;18.05;12.48;;;4.40;99.90;;;;;;5013122;28;20029;-66
2021/01/31 12:30:21;;;;;;;21.75;13.68;;;4.30;99.90;;;;;;4995335;28;20025;-65
2021/01/31 12:32:47;;;;;;;20.65;13.35;;;4.30;99.90;;;;;;5013277;28;20407;-66
2021/01/31 12:35:14;;;;;;;23.50;13.50;;;4.40;99.90;;;;;;5012872;28;20022;-66
2021/01/31 12:37:40;;;;;;;18.67;12.75;;;4.40;99.90;;;;;;5013234;28;20257;-66
2021/01/31 12:40:07;;;;;;;20.47;13.17;;;4.40;99.90;;;;;;5013330;28;20045;-66
2021/01/31 12:42:33;;;;;;;23.02;14.15;;;4.50;99.90;;;;;;4995399;28;20026;-66
2021/01/31 12:44:59;;;;;;;19.23;12.68;;;4.50;99.90;;;;;;5013254;28;20022;-65
2021/01/31 12:47:24;;;;;;;19.53;12.33;;;4.50;99.90;;;;;;5014372;28;20053;-67
2021/01/31 12:49:50;;;;;;;19.47;12.70;;;4.40;99.90;;;;;;5014185;28;20034;-67
2021/01/31 12:52:16;;;;;;;24.20;12.67;;;4.40;99.90;;;;;;4995560;28;20080;-66
2021/01/31 12:54:41;;;;;;;21.42;13.35;;;4.30;99.90;;;;;;5013043;28;20022;-66
2021/01/31 12:57:07;;;;;;;19.53;13.00;;;4.30;99.90;;;;;;5013357;28;20061;-67
2021/01/31 12:59:33;;;;;;;20.97;13.77;;;4.30;99.90;;;;;;5013708;28;20097;-65
2021/01/31 13:01:59;;;;;;;21.37;13.27;;;4.30;99.90;;;;;;5013837;28;20022;-66
2021/01/31 13:04:25;;;;;;;20.98;13.82;;;4.40;99.90;;;;;;5013249;28;20033;-67
2021/01/31 13:06:51;;;;;;;21.90;13.80;;;4.40;99.90;;;;;;5012965;28;20144;-65